Bernardo, New Mexico
Current Conditions -  °F | °C
As of 12:35 AM on Friday 19 Dec 2014 (Local Time) from KE80 Reporting Station
Clear Clear  
Wind Chill: 29°   Ceiling: Unl
Heat Index: 29°   Visibility: 10mi
Dew Point: 28°   Wind: 3mph
Humidity: 97%   Direction: 40°NE
Pressure: 30.16"   Gusts: NA
Location:  34.4828°N, 106.804°W
Report Text: KE80 190735Z AUTO 04003KT 10SM CLR M02/M02 A3016 RMK AO2 T10171021
Loading
Personal Weather Stations






























Interactive Weather Map New forecast layout! Learn more

10-Day Weather Forecast

Advertisements
Track Severe Weather on mobile